createdAt,value
2018-09-28T00:02:08.984Z,9.70
2018-09-28T00:04:35.245Z,9.10
2018-09-28T00:07:01.549Z,9.60
2018-09-28T00:09:27.829Z,10.63
2018-09-28T00:11:54.120Z,9.50
2018-09-28T00:14:21.120Z,9.03
2018-09-28T00:16:47.423Z,9.40
2018-09-28T00:19:13.767Z,10.53
2018-09-28T00:21:40.020Z,9.57
2018-09-28T00:24:06.314Z,10.30
2018-09-28T00:26:32.658Z,11.73
2018-09-28T00:28:58.975Z,10.87
2018-09-28T00:31:25.255Z,10.90
2018-09-28T00:33:51.554Z,9.90
2018-09-28T00:36:17.820Z,10.60
2018-09-28T00:38:44.084Z,11.07
2018-09-28T00:41:11.092Z,12.20
2018-09-28T00:43:37.385Z,11.30
2018-09-28T00:46:03.663Z,10.83
2018-09-28T00:48:29.949Z,11.40
2018-09-28T00:50:56.212Z,10.80
2018-09-28T00:53:22.523Z,11.20
2018-09-28T00:55:48.793Z,11.47
2018-09-28T00:58:15.064Z,9.90
2018-09-28T01:00:41.377Z,14.43
2018-09-28T01:03:07.628Z,10.90
2018-09-28T01:05:33.928Z,11.60
2018-09-28T01:08:00.251Z,11.73
2018-09-28T01:10:26.523Z,11.53
2018-09-28T01:12:52.804Z,12.53
2018-09-28T01:15:19.101Z,13.27
2018-09-28T01:17:45.374Z,13.00
2018-09-28T01:20:11.694Z,12.67
2018-09-28T01:22:38.025Z,12.40
2018-09-28T01:25:04.292Z,20.60
2018-09-28T01:27:30.600Z,26.50
2018-09-28T01:29:56.895Z,22.87
2018-09-28T01:32:23.208Z,18.43
2018-09-28T01:34:49.490Z,17.43
2018-09-28T01:37:15.859Z,16.20
2018-09-28T01:39:42.253Z,14.10
2018-09-28T01:42:08.514Z,13.60
2018-09-28T01:44:35.612Z,12.13
2018-09-28T01:47:01.878Z,13.37
2018-09-28T01:49:28.215Z,12.80
2018-09-28T01:51:55.221Z,13.00
2018-09-28T01:54:21.596Z,13.17
2018-09-28T01:56:48.644Z,13.10
2018-09-28T01:59:15.666Z,12.90
2018-09-28T02:01:42.761Z,13.73
2018-09-28T02:04:09.041Z,13.27
2018-09-28T02:06:35.360Z,14.17
2018-09-28T02:09:01.646Z,14.17
2018-09-28T02:11:27.982Z,12.30
2018-09-28T02:13:55.015Z,14.20
2018-09-28T02:16:22.030Z,13.60
2018-09-28T02:18:48.336Z,13.57
2018-09-28T02:21:14.635Z,13.83
2018-09-28T02:23:40.970Z,14.17
2018-09-28T02:26:07.275Z,13.60
2018-09-28T02:28:33.661Z,13.30
2018-09-28T02:30:59.958Z,14.60
2018-09-28T02:33:27.036Z,13.93
2018-09-28T02:35:53.363Z,14.50
2018-09-28T02:38:19.706Z,12.57
2018-09-28T02:40:45.987Z,13.70
2018-09-28T02:43:12.318Z,14.17
2018-09-28T02:45:38.617Z,13.87
2018-09-28T02:48:04.938Z,14.20
2018-09-28T02:50:31.260Z,16.23
2018-09-28T02:52:57.735Z,15.07
2018-09-28T02:55:24.810Z,15.40
2018-09-28T02:57:51.938Z,14.33
2018-09-28T03:00:18.226Z,14.27
2018-09-28T03:02:54.540Z,13.40
2018-09-28T03:05:20.877Z,15.23
2018-09-28T03:07:47.156Z,13.43
2018-09-28T03:10:13.480Z,12.90
2018-09-28T03:12:40.101Z,12.47
2018-09-28T03:15:06.426Z,12.93
2018-09-28T03:17:33.449Z,12.97
2018-09-28T03:19:59.754Z,13.37
2018-09-28T03:22:26.831Z,13.33
2018-09-28T03:24:53.114Z,13.57
2018-09-28T03:27:19.433Z,14.63
2018-09-28T03:29:45.729Z,14.30
2018-09-28T03:32:12.809Z,14.43
2018-09-28T03:34:39.137Z,14.87
2018-09-28T03:37:05.514Z,14.17
2018-09-28T03:39:31.843Z,13.47
2018-09-28T03:41:58.140Z,12.90
2018-09-28T03:44:24.467Z,14.90
2018-09-28T03:46:50.758Z,14.13
2018-09-28T03:49:17.032Z,15.03
2018-09-28T03:51:43.352Z,14.93
2018-09-28T03:54:10.390Z,14.40
2018-09-28T03:56:36.665Z,14.60
2018-09-28T03:59:03.037Z,15.20
2018-09-28T04:01:29.341Z,14.93
2018-09-28T04:03:55.654Z,15.00
2018-09-28T04:06:21.974Z,14.60
2018-09-28T04:08:48.298Z,14.93
2018-09-28T04:11:14.598Z,15.97
2018-09-28T04:13:40.900Z,14.97
2018-09-28T04:16:07.534Z,15.83
2018-09-28T04:18:33.846Z,16.70
2018-09-28T04:21:00.150Z,17.50
2018-09-28T04:23:26.488Z,16.30
2018-09-28T04:25:52.985Z,15.90
2018-09-28T04:28:19.270Z,15.23
2018-09-28T04:30:45.565Z,17.97
2018-09-28T04:33:11.944Z,16.33
2018-09-28T04:35:38.232Z,18.30
2018-09-28T04:38:05.313Z,15.50
2018-09-28T04:40:31.617Z,15.37
2018-09-28T04:42:57.904Z,17.70
2018-09-28T04:45:24.256Z,16.87
2018-09-28T04:47:50.502Z,17.07
2018-09-28T04:50:16.786Z,17.83
2018-09-28T04:52:43.109Z,16.13
2018-09-28T04:55:09.421Z,16.33
2018-09-28T04:57:35.746Z,17.00
2018-09-28T05:00:02.120Z,17.60
2018-09-28T05:02:28.411Z,16.03
2018-09-28T05:04:54.714Z,17.37
2018-09-28T05:07:21.032Z,17.10
2018-09-28T05:09:47.320Z,16.57
2018-09-28T05:12:13.683Z,17.83
2018-09-28T05:14:40.012Z,17.73
2018-09-28T05:17:06.354Z,16.33
2018-09-28T05:19:32.778Z,15.73
2018-09-28T05:21:59.046Z,15.10
2018-09-28T05:24:25.388Z,16.03
2018-09-28T05:26:51.711Z,16.23
2018-09-28T05:29:18.006Z,14.83
2018-09-28T05:31:44.471Z,15.67
2018-09-28T05:34:11.443Z,17.20
2018-09-28T05:36:38.574Z,17.00
2018-09-28T05:39:04.912Z,17.73
2018-09-28T05:41:31.172Z,17.20
2018-09-28T05:43:57.473Z,18.20
2018-09-28T05:46:23.835Z,18.27
2018-09-28T05:48:50.074Z,17.00
2018-09-28T05:51:16.519Z,16.67
2018-09-28T05:53:42.842Z,16.20
2018-09-28T05:56:09.360Z,16.77
2018-09-28T05:58:36.362Z,15.77
2018-09-28T06:01:08.838Z,15.80
2018-09-28T06:03:35.174Z,15.57
2018-09-28T06:06:01.607Z,17.30
2018-09-28T06:08:27.980Z,16.47
2018-09-28T06:10:54.382Z,19.00
2018-09-28T06:13:20.674Z,18.50
2018-09-28T06:15:47.105Z,16.63
2018-09-28T06:18:13.437Z,18.27
2018-09-28T06:20:39.802Z,19.93
2018-09-28T06:23:06.118Z,20.47
2018-09-28T06:25:32.429Z,17.97
2018-09-28T06:27:58.756Z,20.47
2018-09-28T06:30:25.037Z,19.57
2018-09-28T06:32:51.409Z,19.33
2018-09-28T06:35:18.449Z,17.97
2018-09-28T06:37:44.746Z,19.33
2018-09-28T06:40:11.021Z,16.00
2018-09-28T06:42:37.385Z,16.40
2018-09-28T06:45:03.678Z,16.03
2018-09-28T06:47:30.843Z,21.30
2018-09-28T06:49:57.289Z,20.53
2018-09-28T06:52:23.584Z,25.23
2018-09-28T06:54:50.674Z,58.67
2018-09-28T06:57:16.974Z,32.33
2018-09-28T06:59:43.321Z,19.57
2018-09-28T07:02:22.491Z,17.97
2018-09-28T07:04:48.921Z,17.13
2018-09-28T07:07:15.225Z,19.93
2018-09-28T07:09:41.613Z,18.27
2018-09-28T07:12:07.962Z,24.23
2018-09-28T07:14:34.599Z,30.20
2018-09-28T07:17:00.912Z,22.60
2018-09-28T07:19:27.997Z,20.67
2018-09-28T07:22:01.280Z,17.43
2018-09-28T07:24:28.376Z,17.53
2018-09-28T07:26:54.605Z,18.10
2018-09-28T07:29:20.882Z,16.80
2018-09-28T07:31:48.081Z,19.63
2018-09-28T07:34:14.421Z,17.63
2018-09-28T07:36:40.857Z,16.63
2018-09-28T07:39:07.079Z,15.53
2018-09-28T07:41:33.816Z,15.60
2018-09-28T07:44:00.139Z,13.70
2018-09-28T07:46:26.389Z,12.80
2018-09-28T07:48:52.692Z,14.03
2018-09-28T07:51:19.015Z,14.67
2018-09-28T07:53:46.072Z,13.73
2018-09-28T07:56:12.389Z,20.97
2018-09-28T07:58:39.401Z,25.33
2018-09-28T08:01:06.525Z,25.40
2018-09-28T08:03:32.816Z,17.40
2018-09-28T08:05:59.847Z,17.00
2018-09-28T08:08:26.106Z,16.77
2018-09-28T08:10:53.133Z,15.73
2018-09-28T08:13:19.405Z,16.50
2018-09-28T08:15:45.740Z,16.00
2018-09-28T08:18:12.047Z,17.10
2018-09-28T08:20:38.325Z,16.50
2018-09-28T08:23:04.637Z,16.60
2018-09-28T08:25:30.901Z,17.53
2018-09-28T08:27:57.195Z,18.37
2018-09-28T08:30:23.610Z,17.97
2018-09-28T08:32:49.844Z,17.10
2018-09-28T08:35:16.093Z,17.27
2018-09-28T08:37:42.402Z,15.70
2018-09-28T08:40:09.402Z,20.20
2018-09-28T08:42:35.706Z,17.67
2018-09-28T08:45:02.008Z,18.20
2018-09-28T08:47:29.035Z,17.27
2018-09-28T08:49:56.046Z,17.47
2018-09-28T08:52:22.367Z,18.10
2018-09-28T08:54:48.650Z,17.10
2018-09-28T08:57:15.815Z,16.77
2018-09-28T08:59:42.173Z,18.30
2018-09-28T09:02:08.546Z,18.73
2018-09-28T09:04:34.885Z,17.93
2018-09-28T09:07:01.224Z,17.53
2018-09-28T09:09:28.286Z,17.33
2018-09-28T09:11:54.627Z,17.67
2018-09-28T09:14:20.986Z,18.90
2018-09-28T09:16:47.423Z,16.10
2018-09-28T09:19:13.742Z,18.53
2018-09-28T09:21:40.041Z,18.10
2018-09-28T09:24:06.556Z,16.47
2018-09-28T09:26:32.950Z,14.03
2018-09-28T09:28:59.222Z,17.17
2018-09-28T09:31:25.570Z,20.17
2018-09-28T09:33:52.629Z,18.50
2018-09-28T09:36:18.919Z,19.53
2018-09-28T09:38:45.381Z,18.43
2018-09-28T09:41:13.456Z,18.83
2018-09-28T09:43:39.742Z,18.07
2018-09-28T09:46:06.083Z,18.37
2018-09-28T09:48:32.403Z,16.33
2018-09-28T09:50:58.722Z,18.50
2018-09-28T09:53:25.004Z,18.80
2018-09-28T09:55:51.258Z,17.90
2018-09-28T09:58:18.317Z,21.53
2018-09-28T10:00:45.557Z,19.07
2018-09-28T10:03:13.269Z,20.80
2018-09-28T10:05:39.581Z,15.70
2018-09-28T10:08:06.149Z,16.37
2018-09-28T10:10:32.458Z,15.97
2018-09-28T10:12:58.802Z,16.97
2018-09-28T10:15:25.301Z,15.70
2018-09-28T10:17:51.718Z,15.70
2018-09-28T10:20:18.302Z,14.20
2018-09-28T10:22:45.072Z,15.80
2018-09-28T10:25:11.535Z,17.50
2018-09-28T10:27:37.969Z,17.70
2018-09-28T10:30:04.278Z,16.93
2018-09-28T10:32:30.557Z,16.33
2018-09-28T10:34:56.868Z,17.33
2018-09-28T10:37:23.950Z,16.07
2018-09-28T10:39:50.268Z,14.43
2018-09-28T10:42:16.582Z,15.57
2018-09-28T10:44:42.865Z,18.83
2018-09-28T10:47:09.122Z,18.80
2018-09-28T10:49:36.197Z,17.37
2018-09-28T10:52:02.594Z,16.43
2018-09-28T10:54:29.618Z,17.90
2018-09-28T10:56:55.899Z,17.23
2018-09-28T10:59:22.202Z,17.10
2018-09-28T11:01:48.666Z,16.23
2018-09-28T11:04:15.135Z,17.23
2018-09-28T11:06:41.505Z,14.20
2018-09-28T11:09:07.822Z,17.77
2018-09-28T11:11:34.090Z,18.27
2018-09-28T11:14:01.141Z,18.47
2018-09-28T11:16:28.197Z,15.40
2018-09-28T11:18:54.527Z,17.80
2018-09-28T11:21:20.867Z,17.80
2018-09-28T11:23:47.111Z,12.63
2018-09-28T11:26:13.467Z,17.03
2018-09-28T11:28:39.753Z,11.50
2018-09-28T11:31:06.828Z,12.47
2018-09-28T11:33:33.126Z,12.73
2018-09-28T11:35:59.454Z,14.23
2018-09-28T11:38:26.503Z,14.90
2018-09-28T11:40:53.566Z,13.70
2018-09-28T11:43:20.640Z,17.17
2018-09-28T11:45:46.946Z,15.97
2018-09-28T11:48:13.218Z,14.37
2018-09-28T11:50:39.654Z,13.60
2018-09-28T11:53:05.957Z,13.70
2018-09-28T11:55:32.253Z,20.60
2018-09-28T11:57:59.333Z,16.20
2018-09-28T12:00:32.722Z,15.47
2018-09-28T12:02:59.023Z,15.43
2018-09-28T12:05:25.355Z,15.53
2018-09-28T12:07:56.187Z,14.83
2018-09-28T12:10:22.577Z,15.73
2018-09-28T12:12:51.137Z,14.40
2018-09-28T12:15:18.341Z,15.53
2018-09-28T12:17:45.432Z,14.67
2018-09-28T12:20:12.484Z,24.10
2018-09-28T12:22:38.891Z,15.23
2018-09-28T12:25:07.606Z,13.60
2018-09-28T12:27:34.835Z,11.20
2018-09-28T12:30:03.032Z,10.97
2018-09-28T12:32:29.749Z,13.67
2018-09-28T12:34:56.573Z,13.87
2018-09-28T12:37:23.733Z,13.83
2018-09-28T12:39:51.723Z,11.87
2018-09-28T12:42:20.068Z,11.43
2018-09-28T12:44:47.372Z,11.13
2018-09-28T12:47:15.835Z,10.87
2018-09-28T12:49:42.222Z,13.13
2018-09-28T12:52:10.113Z,12.53
2018-09-28T12:54:39.735Z,13.40
2018-09-28T12:57:06.135Z,13.70
2018-09-28T12:59:33.341Z,13.90
2018-09-28T13:02:00.575Z,17.33
2018-09-28T13:04:27.627Z,13.80
2018-09-28T13:06:56.319Z,13.57
2018-09-28T13:09:24.654Z,13.93
2018-09-28T13:11:53.131Z,14.57
2018-09-28T13:14:20.985Z,13.63
2018-09-28T13:16:48.366Z,14.50
2018-09-28T13:19:17.045Z,15.47
2018-09-28T13:21:43.576Z,14.93
2018-09-28T13:24:09.957Z,19.40
2018-09-28T13:26:39.196Z,14.97
2018-09-28T13:29:06.584Z,14.70
2018-09-28T13:31:32.940Z,16.00
2018-09-28T13:33:59.382Z,15.07
2018-09-28T13:36:26.437Z,14.50
2018-09-28T13:38:52.966Z,13.80
2018-09-28T13:41:20.039Z,13.63
2018-09-28T13:43:47.222Z,17.40
2018-09-28T13:46:14.403Z,13.97
2018-09-28T13:48:41.537Z,13.73
2018-09-28T13:51:15.023Z,15.70
2018-09-28T13:53:43.785Z,19.93
2018-09-28T13:56:10.358Z,18.60
2018-09-28T13:58:37.376Z,19.57
2018-09-28T14:01:04.692Z,18.43
2018-09-28T14:03:31.104Z,17.47
2018-09-28T14:05:57.457Z,15.77
2018-09-28T14:08:24.411Z,16.80
2018-09-28T14:10:51.953Z,18.30
2018-09-28T14:13:18.367Z,15.40
2018-09-28T14:15:44.720Z,15.50
2018-09-28T14:18:13.025Z,15.80
2018-09-28T14:20:39.406Z,15.90
2018-09-28T14:23:05.735Z,15.03
2018-09-28T14:25:32.526Z,11.40
2018-09-28T14:27:58.866Z,11.20
2018-09-28T14:30:25.373Z,11.87
2018-09-28T14:32:51.715Z,10.83
2018-09-28T14:35:18.329Z,9.73
2018-09-28T14:37:44.639Z,10.33
2018-09-28T14:40:11.635Z,12.27
2018-09-28T14:42:37.904Z,9.63
2018-09-28T14:45:04.965Z,8.70
2018-09-28T14:47:31.571Z,8.80
2018-09-28T14:49:58.570Z,9.07
2018-09-28T14:52:24.892Z,7.30
2018-09-28T14:54:52.179Z,8.07
2018-09-28T14:57:19.285Z,8.40
2018-09-28T14:59:46.898Z,7.43
2018-09-28T15:02:14.066Z,7.47
2018-09-28T15:04:45.992Z,8.03
2018-09-28T15:07:14.528Z,10.17
2018-09-28T15:09:40.866Z,9.37
2018-09-28T15:12:08.348Z,6.70
2018-09-28T15:14:36.503Z,8.20
2018-09-28T15:17:02.817Z,7.40
2018-09-28T15:19:29.929Z,9.10
2018-09-28T15:21:56.264Z,8.67
2018-09-28T15:24:22.610Z,13.10
2018-09-28T15:26:48.882Z,13.00
2018-09-28T15:29:16.092Z,10.17
2018-09-28T15:31:43.781Z,10.60
2018-09-28T15:34:10.584Z,11.20
2018-09-28T15:36:40.827Z,9.80
2018-09-28T15:39:14.979Z,11.30
2018-09-28T15:41:43.089Z,13.00
2018-09-28T15:44:11.059Z,13.40
2018-09-28T15:46:39.649Z,9.03
2018-09-28T15:49:13.088Z,8.53
2018-09-28T15:51:40.123Z,10.80
2018-09-28T15:56:46.917Z,7.80
2018-09-28T15:59:13.275Z,10.17
2018-09-28T16:01:40.018Z,13.40
2018-09-28T16:04:06.692Z,8.10
2018-09-28T16:06:33.230Z,12.63
2018-09-28T16:09:01.538Z,10.90
2018-09-28T16:11:30.525Z,14.10
2018-09-28T16:13:57.940Z,8.10
2018-09-28T16:16:25.204Z,8.20
2018-09-28T16:18:55.012Z,7.73
2018-09-28T16:21:21.410Z,8.17
2018-09-28T16:23:48.594Z,7.87
2018-09-28T16:26:14.897Z,8.37
2018-09-28T16:28:41.952Z,10.70
2018-09-28T16:31:08.683Z,8.73
2018-09-28T16:33:39.130Z,11.80
2018-09-28T16:36:05.494Z,9.13
2018-09-28T16:38:31.807Z,12.63
2018-09-28T16:40:58.425Z,9.33
2018-09-28T16:43:24.738Z,7.80
2018-09-28T16:45:51.643Z,8.53
2018-09-28T16:48:17.901Z,4.73
2018-09-28T16:50:44.178Z,9.27
2018-09-28T16:53:23.452Z,7.77
2018-09-28T16:55:51.660Z,9.40
2018-09-28T16:58:19.161Z,10.17
2018-09-28T17:00:46.285Z,7.20
2018-09-28T17:03:14.067Z,5.93
2018-09-28T17:05:40.417Z,6.83
2018-09-28T17:08:06.990Z,5.03
2018-09-28T17:10:33.760Z,5.93
2018-09-28T17:13:00.103Z,6.60
2018-09-28T17:15:27.192Z,9.27
2018-09-28T17:17:53.554Z,5.50
2018-09-28T17:20:20.640Z,8.37
2018-09-28T17:22:47.071Z,5.80
2018-09-28T17:25:13.389Z,10.60
2018-09-28T17:27:39.666Z,6.70
2018-09-28T17:30:05.953Z,4.77
2018-09-28T17:32:33.026Z,8.07
2018-09-28T17:34:59.395Z,5.77
2018-09-28T17:37:25.726Z,6.57
2018-09-28T17:39:53.015Z,6.83
2018-09-28T17:42:21.899Z,7.60
2018-09-28T17:44:51.223Z,7.30
2018-09-28T17:47:18.531Z,7.27
2018-09-28T17:49:46.557Z,10.93
2018-09-28T17:52:13.875Z,7.30
2018-09-28T17:54:47.934Z,7.20
2018-09-28T17:57:15.618Z,5.53
2018-09-28T17:59:42.134Z,8.40
2018-09-28T18:02:08.826Z,10.53
2018-09-28T18:04:35.219Z,6.77
2018-09-28T18:07:01.999Z,10.57
2018-09-28T18:09:28.892Z,8.20
2018-09-28T18:11:55.250Z,7.87
2018-09-28T18:14:24.961Z,10.47
2018-09-28T18:19:31.157Z,8.80
2018-09-28T18:21:58.926Z,6.63
2018-09-28T18:24:27.213Z,5.90
2018-09-28T18:26:54.110Z,7.77
2018-09-28T18:29:20.443Z,7.67
2018-09-28T18:31:46.712Z,7.80
2018-09-28T18:34:13.342Z,4.40
2018-09-28T18:36:39.887Z,7.47
2018-09-28T18:39:07.523Z,9.27
2018-09-28T18:41:35.422Z,12.63
2018-09-28T18:44:01.803Z,7.17
2018-09-28T18:46:35.471Z,6.07
2018-09-28T18:49:03.447Z,6.93
2018-09-28T18:51:30.917Z,9.20
2018-09-28T18:53:58.390Z,9.47
2018-09-28T18:56:24.753Z,6.80
2018-09-28T18:59:03.249Z,8.13
2018-09-28T19:01:29.680Z,7.97
2018-09-28T19:03:56.112Z,5.93
2018-09-28T19:06:22.549Z,11.57
2018-09-28T19:08:49.665Z,9.67
2018-09-28T19:11:17.017Z,4.90
2018-09-28T19:13:49.443Z,9.53
2018-09-28T19:16:17.470Z,6.90
2018-09-28T19:18:44.224Z,9.83
2018-09-28T19:21:11.482Z,9.20
2018-09-28T19:23:38.034Z,7.63
2018-09-28T19:26:05.522Z,7.50
2018-09-28T19:28:34.883Z,5.87
2018-09-28T19:31:05.033Z,6.57
2018-09-28T19:33:34.231Z,7.87
2018-09-28T19:36:05.438Z,9.17
2018-09-28T19:38:34.215Z,13.67
2018-09-28T19:41:03.397Z,8.43
2018-09-28T19:43:31.092Z,8.90
2018-09-28T19:45:58.121Z,9.13
2018-09-28T19:48:26.492Z,10.50
2018-09-28T19:50:53.211Z,5.67
2018-09-28T19:53:20.245Z,10.13
2018-09-28T19:55:47.496Z,7.27
2018-09-28T19:58:24.015Z,8.70
2018-09-28T20:00:50.630Z,7.87
2018-09-28T20:03:18.310Z,11.70
2018-09-28T20:05:48.044Z,10.53
2018-09-28T20:08:14.449Z,7.30
2018-09-28T20:10:43.063Z,9.93
2018-09-28T20:13:09.481Z,12.30
2018-09-28T20:15:35.824Z,10.33
2018-09-28T20:18:02.173Z,9.57
2018-09-28T20:20:29.274Z,6.70
2018-09-28T20:22:55.648Z,11.07
2018-09-28T20:25:21.999Z,12.03
2018-09-28T20:27:50.627Z,9.97
2018-09-28T20:30:17.208Z,18.63
2018-09-28T20:32:43.514Z,15.37
2018-09-28T20:35:09.826Z,19.17
2018-09-28T20:37:36.186Z,21.77
2018-09-28T20:40:02.528Z,20.97
2018-09-28T20:42:28.822Z,11.93
2018-09-28T20:44:56.854Z,10.67
2018-09-28T20:47:23.350Z,11.93
2018-09-28T20:49:51.867Z,11.50
2018-09-28T20:52:18.466Z,10.33
2018-09-28T20:54:45.123Z,8.23
2018-09-28T20:57:11.772Z,15.60
2018-09-28T20:59:43.409Z,13.97
2018-09-28T21:02:14.817Z,13.30
2018-09-28T21:04:41.595Z,13.87
2018-09-28T21:07:08.521Z,9.30
2018-09-28T21:09:35.496Z,11.30
2018-09-28T21:12:04.088Z,18.40
2018-09-28T21:14:30.635Z,8.53
2018-09-28T21:16:57.121Z,7.77
2018-09-28T21:19:23.572Z,9.67
2018-09-28T21:21:50.258Z,10.83
2018-09-28T21:24:23.690Z,10.93
2018-09-28T21:26:51.489Z,12.80
2018-09-28T21:29:19.106Z,10.40
2018-09-28T21:31:45.951Z,7.83
2018-09-28T21:34:12.536Z,11.70
2018-09-28T21:36:39.284Z,11.70
2018-09-28T21:39:06.080Z,9.00
2018-09-28T21:41:32.629Z,9.57
2018-09-28T21:43:59.107Z,10.13
2018-09-28T21:46:25.489Z,10.77
2018-09-28T21:48:52.129Z,8.80
2018-09-28T21:51:18.650Z,8.13
2018-09-28T21:53:47.617Z,10.70
2018-09-28T21:56:16.994Z,6.53
2018-09-28T21:58:46.847Z,10.70
2018-09-28T22:01:13.428Z,11.70
2018-09-28T22:03:43.151Z,7.40
2018-09-28T22:06:10.347Z,9.83
2018-09-28T22:08:36.674Z,9.50
2018-09-28T22:11:03.241Z,9.73
2018-09-28T22:13:30.935Z,11.37
2018-09-28T22:15:58.175Z,9.07
2018-09-28T22:18:26.082Z,10.50
2018-09-28T22:20:53.674Z,9.37
2018-09-28T22:23:21.934Z,12.93
2018-09-28T22:25:49.410Z,12.60
2018-09-28T22:28:17.077Z,9.90
2018-09-28T22:30:44.592Z,10.27
2018-09-28T22:33:11.037Z,8.57
2018-09-28T22:35:38.007Z,9.47
2018-09-28T22:38:05.747Z,12.03
2018-09-28T22:40:33.094Z,8.67
2018-09-28T22:43:02.338Z,7.27
2018-09-28T22:45:29.558Z,7.07
2018-09-28T22:47:56.271Z,5.20
2018-09-28T22:50:22.693Z,9.80
2018-09-28T22:52:49.324Z,8.37
2018-09-28T22:55:15.668Z,8.20
2018-09-28T22:57:41.979Z,10.23
2018-09-28T23:00:08.279Z,9.13
2018-09-28T23:02:34.613Z,8.80
2018-09-28T23:05:00.886Z,8.37
2018-09-28T23:07:27.162Z,7.77
2018-09-28T23:09:53.502Z,9.93
2018-09-28T23:12:19.779Z,8.73
2018-09-28T23:14:46.030Z,6.80
2018-09-28T23:17:12.350Z,11.43
2018-09-28T23:19:38.634Z,7.70
2018-09-28T23:22:04.932Z,7.60
2018-09-28T23:24:31.190Z,6.50
2018-09-28T23:26:57.494Z,5.10
2018-09-28T23:29:24.504Z,10.97
2018-09-28T23:31:50.799Z,10.63
2018-09-28T23:34:17.102Z,7.40
2018-09-28T23:36:43.356Z,7.97
2018-09-28T23:39:09.664Z,6.33
2018-09-28T23:41:35.970Z,13.63
2018-09-28T23:44:02.325Z,14.20
2018-09-28T23:46:28.596Z,9.40
2018-09-28T23:48:54.879Z,5.87
2018-09-28T23:51:21.186Z,6.20
2018-09-28T23:53:47.505Z,10.50
2018-09-28T23:56:24.595Z,8.13
2018-09-28T23:58:50.889Z,8.63
